Time;durP1;ratioP1;P1;durP2;ratioP2;P2;SDS_P1;SDS_P2;PMS_P1;PMS_P2;Temp;Humidity;BMP_temperature;BMP_pressure;BME280_temperature;BME280_humidity;BME280_pressure;Samples;Min_cycle;Max_cycle;Signal;HPM_P1;HPM_P2
2022/05/22 00:00:48;;;;;;;5.20;2.50;;;;;;;;;;4847063;29;20270;-45
2022/05/22 00:03:15;;;;;;;2.97;2.67;;;;;;;;;;4847170;29;20306;-45
2022/05/22 00:05:43;;;;;;;10.15;2.97;;;;;;;;;;4847106;29;20630;-44
2022/05/22 00:08:09;;;;;;;4.10;2.92;;;;;;;;;;4847248;29;20294;-45
2022/05/22 00:10:36;;;;;;;5.38;3.05;;;;;;;;;;4847235;29;20212;-45
2022/05/22 00:13:03;;;;;;;8.48;2.90;;;;;;;;;;4846819;29;20649;-45
2022/05/22 00:15:30;;;;;;;3.78;2.83;;;;;;;;;;4847264;29;20223;-45
2022/05/22 00:17:57;;;;;;;4.85;3.03;;;;;;;;;;4847094;29;20294;-45
2022/05/22 00:20:24;;;;;;;6.80;3.10;;;;;;;;;;4847059;29;20275;-45
2022/05/22 00:22:51;;;;;;;8.73;3.25;;;;;;;;;;4847086;29;20226;-45
2022/05/22 00:25:18;;;;;;;7.65;3.05;;;;;;;;;;4846856;29;20239;-44
2022/05/22 00:27:45;;;;;;;5.13;3.72;;;;;;;;;;4846747;29;20351;-45
2022/05/22 00:30:13;;;;;;;9.05;3.53;;;;;;;;;;4861103;29;20215;-44
2022/05/22 00:32:44;;;;;;;5.45;3.22;;;;;;;;;;4846834;29;20215;-45
2022/05/22 00:35:13;;;;;;;6.30;3.35;;;;;;;;;;4846680;29;20570;-44
2022/05/22 00:37:40;;;;;;;4.68;3.33;;;;;;;;;;4846534;29;20211;-44
2022/05/22 00:40:07;;;;;;;4.75;3.60;;;;;;;;;;4846216;29;20211;-44
2022/05/22 00:42:34;;;;;;;6.10;3.75;;;;;;;;;;4846569;29;20267;-44
2022/05/22 00:45:05;;;;;;;4.65;3.55;;;;;;;;;;4846606;29;20242;-44
2022/05/22 00:47:31;;;;;;;5.25;3.72;;;;;;;;;;4829750;29;20218;-45
2022/05/22 00:50:02;;;;;;;10.52;3.70;;;;;;;;;;4845709;29;20545;-44
2022/05/22 00:52:40;;;;;;;6.38;3.88;;;;;;;;;;4845772;29;20211;-45
2022/05/22 00:55:13;;;;;;;6.13;3.53;;;;;;;;;;4830167;29;20555;-44
2022/05/22 00:57:44;;;;;;;5.57;4.20;;;;;;;;;;4830287;29;20208;-44
2022/05/22 01:00:20;;;;;;;5.78;4.18;;;;;;;;;;4829728;29;20627;-45
2022/05/22 01:05:40;;;;;;;4.80;4.00;;;;;;;;;;4846514;29;20210;-44
2022/05/22 01:08:07;;;;;;;5.13;3.70;;;;;;;;;;4830283;29;20218;-44
2022/05/22 01:10:44;;;;;;;8.32;4.20;;;;;;;;;;4829915;29;20234;-46
2022/05/22 01:13:13;;;;;;;4.45;4.00;;;;;;;;;;4815185;29;20289;-44
2022/05/22 01:15:40;;;;;;;7.57;4.07;;;;;;;;;;4830103;29;20293;-44
2022/05/22 01:18:07;;;;;;;5.70;4.10;;;;;;;;;;4860519;29;20242;-44
2022/05/22 01:20:34;;;;;;;9.55;5.00;;;;;;;;;;4845944;29;20240;-45
2022/05/22 01:23:02;;;;;;;6.13;4.25;;;;;;;;;;4860357;29;20215;-44
2022/05/22 01:25:31;;;;;;;6.57;4.57;;;;;;;;;;4845817;29;20223;-44
2022/05/22 01:27:59;;;;;;;8.35;4.60;;;;;;;;;;4829666;29;20272;-44
2022/05/22 01:30:28;;;;;;;4.78;4.28;;;;;;;;;;4829753;29;20231;-45
2022/05/22 01:33:00;;;;;;;7.28;4.22;;;;;;;;;;4829885;29;20212;-44
2022/05/22 01:35:28;;;;;;;7.05;4.43;;;;;;;;;;4845378;29;20610;-44
2022/05/22 01:37:59;;;;;;;5.30;4.20;;;;;;;;;;4829833;29;20215;-44
2022/05/22 01:40:26;;;;;;;5.10;4.20;;;;;;;;;;4859985;29;20340;-45
2022/05/22 01:42:53;;;;;;;4.82;4.10;;;;;;;;;;4845325;29;20722;-45
2022/05/22 01:45:25;;;;;;;7.88;4.43;;;;;;;;;;4860226;29;20292;-43
2022/05/22 01:47:54;;;;;;;8.73;4.60;;;;;;;;;;4844981;29;20215;-45
2022/05/22 01:50:31;;;;;;;5.28;4.25;;;;;;;;;;4828881;29;20282;-44
2022/05/22 01:52:59;;;;;;;10.52;4.43;;;;;;;;;;4844209;29;20207;-44
2022/05/22 01:55:27;;;;;;;7.28;4.35;;;;;;;;;;4829080;29;20287;-44
2022/05/22 01:57:57;;;;;;;6.45;4.20;;;;;;;;;;4829688;29;20260;-44
2022/05/22 02:00:26;;;;;;;7.85;5.50;;;;;;;;;;4828848;29;20215;-44
2022/05/22 02:02:57;;;;;;;8.00;4.82;;;;;;;;;;4828885;29;20258;-44
2022/05/22 02:05:34;;;;;;;7.45;4.68;;;;;;;;;;4828761;29;20226;-44
2022/05/22 02:08:19;;;;;;;6.07;4.97;;;;;;;;;;4843776;29;20654;-44
2022/05/22 02:10:54;;;;;;;9.30;4.68;;;;;;;;;;4844011;29;20231;-45
2022/05/22 02:13:25;;;;;;;5.88;4.90;;;;;;;;;;4844636;29;20279;-45
2022/05/22 02:15:52;;;;;;;6.72;4.75;;;;;;;;;;4844432;29;20242;-46
2022/05/22 02:18:20;;;;;;;7.38;5.38;;;;;;;;;;4844546;29;20621;-45
2022/05/22 02:20:50;;;;;;;12.90;5.43;;;;;;;;;;4843774;29;20215;-44
2022/05/22 02:23:18;;;;;;;7.80;5.28;;;;;;;;;;4843811;29;20238;-47
2022/05/22 02:25:48;;;;;;;6.65;5.65;;;;;;;;;;4843562;29;20249;-44
2022/05/22 02:28:17;;;;;;;7.85;5.82;;;;;;;;;;4859029;29;20207;-46
2022/05/22 02:30:50;;;;;;;11.40;6.10;;;;;;;;;;4844586;29;20298;-44
2022/05/22 02:33:18;;;;;;;7.05;4.72;;;;;;;;;;4828592;29;20218;-44
2022/05/22 02:36:00;;;;;;;10.65;5.05;;;;;;;;;;4843738;29;20195;-44
2022/05/22 02:38:34;;;;;;;10.80;5.53;;;;;;;;;;4828440;29;20283;-44
2022/05/22 02:41:12;;;;;;;12.13;3.65;;;;;;;;;;4843518;29;20548;-44
2022/05/22 02:43:43;;;;;;;3.30;2.97;;;;;;;;;;4828858;29;20550;-45
2022/05/22 02:46:17;;;;;;;7.03;3.70;;;;;;;;;;4828667;29;20191;-44
2022/05/22 02:48:46;;;;;;;3.30;2.60;;;;;;;;;;4828418;29;20212;-44
2022/05/22 02:51:15;;;;;;;4.90;2.47;;;;;;;;;;4843943;29;20207;-45
2022/05/22 02:53:43;;;;;;;4.68;2.38;;;;;;;;;;4828299;29;20614;-43
2022/05/22 02:56:19;;;;;;;2.47;2.28;;;;;;;;;;4844111;29;20207;-45
2022/05/22 02:59:15;;;;;;;3.75;2.33;;;;;;;;;;4828350;29;20523;-44
2022/05/22 03:02:01;;;;;;;2.03;1.83;;;;;;;;;;4843595;29;20243;-45
2022/05/22 03:04:28;;;;;;;2.58;1.77;;;;;;;;;;4843586;29;20215;-44
2022/05/22 03:07:03;;;;;;;3.28;2.55;;;;;;;;;;4858598;29;20215;-45
2022/05/22 03:09:30;;;;;;;5.20;2.38;;;;;;;;;;4843419;29;20215;-47
2022/05/22 03:12:05;;;;;;;2.42;1.88;;;;;;;;;;4858504;29;20656;-44
2022/05/22 03:14:35;;;;;;;2.15;1.65;;;;;;;;;;4828516;29;20234;-46
2022/05/22 03:17:02;;;;;;;2.70;1.52;;;;;;;;;;4844209;29;20218;-44
2022/05/22 03:19:34;;;;;;;2.03;1.58;;;;;;;;;;4843066;29;20638;-44
2022/05/22 03:22:02;;;;;;;3.55;2.05;;;;;;;;;;4828024;29;20222;-44
2022/05/22 03:24:31;;;;;;;1.70;1.60;;;;;;;;;;4842942;29;20293;-44
2022/05/22 03:27:06;;;;;;;2.72;1.48;;;;;;;;;;4827992;29;20543;-47
2022/05/22 03:29:33;;;;;;;2.55;1.65;;;;;;;;;;4858645;29;20206;-44
2022/05/22 03:32:01;;;;;;;3.28;1.58;;;;;;;;;;4827832;29;20207;-44
2022/05/22 03:34:29;;;;;;;3.78;1.80;;;;;;;;;;4827819;29;20714;-46
2022/05/22 03:36:57;;;;;;;1.90;1.20;;;;;;;;;;4843909;29;20288;-44
2022/05/22 03:39:24;;;;;;;4.22;1.65;;;;;;;;;;4858478;29;20283;-44
2022/05/22 03:41:51;;;;;;;5.30;1.58;;;;;;;;;;4843637;29;20279;-45
2022/05/22 03:44:21;;;;;;;2.78;1.70;;;;;;;;;;4843229;29;20215;-44
2022/05/22 03:46:48;;;;;;;1.95;1.70;;;;;;;;;;4843778;29;20219;-45
2022/05/22 03:49:21;;;;;;;2.25;1.40;;;;;;;;;;4827767;29;20542;-45
2022/05/22 03:51:50;;;;;;;2.25;1.70;;;;;;;;;;4842954;29;20215;-45
2022/05/22 03:54:19;;;;;;;3.20;1.73;;;;;;;;;;4843480;29;20674;-44
2022/05/22 03:56:48;;;;;;;2.70;1.80;;;;;;;;;;4843020;29;20578;-45
2022/05/22 03:59:40;;;;;;;3.42;2.00;;;;;;;;;;4858232;29;20539;-44
2022/05/22 04:02:09;;;;;;;2.55;2.00;;;;;;;;;;4842752;29;20243;-45
2022/05/22 04:04:37;;;;;;;4.35;1.80;;;;;;;;;;4827775;29;20214;-45
2022/05/22 04:07:18;;;;;;;2.80;1.92;;;;;;;;;;4858149;29;20204;-48
2022/05/22 04:09:47;;;;;;;2.17;1.98;;;;;;;;;;4842765;29;20212;-45
2022/05/22 04:12:19;;;;;;;3.63;1.80;;;;;;;;;;4827793;29;20223;-45
2022/05/22 04:14:53;;;;;;;1.42;1.20;;;;;;;;;;4830261;29;20235;-43
2022/05/22 04:17:20;;;;;;;3.15;1.60;;;;;;;;;;4847035;29;20211;-43
2022/05/22 04:19:47;;;;;;;5.50;1.63;;;;;;;;;;4861398;29;20208;-45
2022/05/22 04:22:15;;;;;;;2.28;1.60;;;;;;;;;;4861740;29;20540;-44
2022/05/22 04:27:31;;;;;;;2.17;1.55;;;;;;;;;;4861804;29;20208;-44
2022/05/22 04:30:01;;;;;;;4.32;1.60;;;;;;;;;;4846056;29;20302;-47
2022/05/22 04:32:36;;;;;;;2.00;1.30;;;;;;;;;;4830493;29;20233;-46
2022/05/22 04:35:03;;;;;;;2.35;1.50;;;;;;;;;;4845927;29;20231;-44
2022/05/22 04:37:31;;;;;;;1.67;1.33;;;;;;;;;;4845772;29;20203;-44
2022/05/22 04:40:03;;;;;;;2.28;1.58;;;;;;;;;;4845731;29;20750;-45
2022/05/22 04:42:33;;;;;;;2.80;1.27;;;;;;;;;;4845312;29;20239;-45
2022/05/22 04:45:03;;;;;;;1.45;1.30;;;;;;;;;;4846112;29;20242;-44
2022/05/22 04:47:43;;;;;;;2.88;1.45;;;;;;;;;;4838655;29;20240;-48
2022/05/22 04:50:24;;;;;;;1.60;1.40;;;;;;;;;;4829431;29;20287;-48
2022/05/22 04:53:09;;;;;;;1.83;1.55;;;;;;;;;;4845902;29;20550;-44
2022/05/22 04:55:54;;;;;;;4.07;1.50;;;;;;;;;;4830449;29;20239;-46
2022/05/22 04:58:21;;;;;;;1.58;1.30;;;;;;;;;;4833277;29;20692;-45
2022/05/22 05:00:49;;;;;;;1.45;1.30;;;;;;;;;;4835405;29;20239;-46
2022/05/22 05:03:16;;;;;;;2.55;1.38;;;;;;;;;;4855303;29;20242;-45
2022/05/22 05:05:57;;;;;;;1.73;1.27;;;;;;;;;;4843220;29;20235;-47
2022/05/22 05:08:27;;;;;;;1.90;1.33;;;;;;;;;;4835457;29;20722;-46
2022/05/22 05:11:00;;;;;;;2.03;1.50;;;;;;;;;;4835521;29;20227;-48
2022/05/22 05:13:50;;;;;;;2.13;1.30;;;;;;;;;;4839363;29;20319;-45
2022/05/22 05:16:17;;;;;;;2.15;1.48;;;;;;;;;;4857721;29;20689;-45
2022/05/22 05:18:57;;;;;;;3.42;1.52;;;;;;;;;;4830983;29;20329;-47
2022/05/22 05:21:24;;;;;;;1.58;0.90;;;;;;;;;;4833750;29;20262;-47
2022/05/22 05:23:56;;;;;;;2.00;1.15;;;;;;;;;;4834433;29;20228;-48
2022/05/22 05:26:26;;;;;;;1.83;1.45;;;;;;;;;;4834328;29;20702;-50
2022/05/22 05:28:56;;;;;;;2.20;1.40;;;;;;;;;;4842891;29;20224;-47
2022/05/22 05:31:43;;;;;;;1.30;0.98;;;;;;;;;;4843282;29;20232;-50
2022/05/22 05:34:13;;;;;;;2.00;1.10;;;;;;;;;;4827831;29;20266;-46
2022/05/22 05:37:19;;;;;;;1.58;1.20;;;;;;;;;;4811102;29;20248;-47
2022/05/22 05:40:07;;;;;;;1.38;1.20;;;;;;;;;;4810173;29;20273;-49
2022/05/22 05:42:42;;;;;;;2.97;1.48;;;;;;;;;;4812126;29;20216;-46
2022/05/22 05:45:12;;;;;;;1.58;1.38;;;;;;;;;;4797163;29;20224;-44
2022/05/22 05:47:51;;;;;;;2.83;1.17;;;;;;;;;;4781841;29;20243;-46
2022/05/22 05:50:30;;;;;;;1.65;1.42;;;;;;;;;;4812297;29;20321;-47
2022/05/22 05:53:06;;;;;;;2.80;1.80;;;;;;;;;;4811251;29;20292;-47
2022/05/22 05:55:39;;;;;;;1.48;1.23;;;;;;;;;;4787670;29;20343;-45
2022/05/22 05:58:49;;;;;;;3.67;1.20;;;;;;;;;;4787871;29;20229;-46
2022/05/22 06:01:25;;;;;;;4.00;1.33;;;;;;;;;;4788230;30;20237;-55
2022/05/22 06:03:53;;;;;;;1.92;1.30;;;;;;;;;;4788056;29;20241;-46
2022/05/22 06:06:21;;;;;;;1.05;0.95;;;;;;;;;;4796842;29;20319;-45
2022/05/22 06:08:49;;;;;;;4.22;1.48;;;;;;;;;;4838749;29;20300;-46
2022/05/22 06:11:45;;;;;;;1.38;1.13;;;;;;;;;;4805581;29;20225;-45
2022/05/22 06:14:16;;;;;;;1.45;1.13;;;;;;;;;;4830739;29;20619;-46
2022/05/22 06:16:43;;;;;;;3.20;1.27;;;;;;;;;;4843474;29;20319;-46
2022/05/22 06:19:12;;;;;;;1.48;1.17;;;;;;;;;;4828407;29;20247;-47
2022/05/22 06:21:43;;;;;;;1.77;1.17;;;;;;;;;;4837416;29;20231;-45
2022/05/22 06:24:12;;;;;;;1.45;1.05;;;;;;;;;;4836161;29;20235;-50
2022/05/22 06:26:54;;;;;;;1.83;1.20;;;;;;;;;;4830954;29;20734;-46
2022/05/22 06:29:28;;;;;;;5.07;1.10;;;;;;;;;;4825829;29;20565;-46
2022/05/22 06:32:17;;;;;;;1.40;1.17;;;;;;;;;;4825697;29;20259;-46
2022/05/22 06:35:06;;;;;;;1.60;1.02;;;;;;;;;;4806559;29;20716;-50
2022/05/22 06:37:57;;;;;;;2.05;1.00;;;;;;;;;;4808366;29;20234;-46
2022/05/22 06:40:42;;;;;;;1.63;1.27;;;;;;;;;;4840814;29;21282;-47
2022/05/22 06:43:29;;;;;;;1.77;0.80;;;;;;;;;;4829261;29;20241;-48
2022/05/22 06:46:16;;;;;;;2.22;1.10;;;;;;;;;;4840029;29;20234;-50
2022/05/22 06:49:13;;;;;;;1.67;0.80;;;;;;;;;;4839874;29;20662;-46
2022/05/22 06:51:59;;;;;;;1.98;1.00;;;;;;;;;;4838896;29;20223;-47
2022/05/22 06:54:44;;;;;;;2.88;1.08;;;;;;;;;;4839776;29;20231;-50
2022/05/22 06:57:27;;;;;;;1.60;0.80;;;;;;;;;;4826589;29;20647;-48
2022/05/22 07:00:14;;;;;;;1.70;0.80;;;;;;;;;;4841856;29;20295;-46
2022/05/22 07:03:04;;;;;;;1.50;0.90;;;;;;;;;;4842353;29;20234;-47
2022/05/22 07:05:57;;;;;;;1.83;0.95;;;;;;;;;;4839422;29;20223;-46
2022/05/22 07:08:53;;;;;;;2.90;1.00;;;;;;;;;;4828169;29;20238;-47
2022/05/22 07:11:39;;;;;;;3.50;1.38;;;;;;;;;;4842970;29;20346;-49
2022/05/22 07:14:38;;;;;;;2.85;1.05;;;;;;;;;;4784809;29;20257;-47
2022/05/22 07:17:24;;;;;;;1.70;1.23;;;;;;;;;;4771511;30;20563;-47
2022/05/22 07:20:18;;;;;;;6.55;3.67;;;;;;;;;;4772299;30;20249;-48
2022/05/22 07:23:05;;;;;;;8.20;5.32;;;;;;;;;;4786788;30;20230;-47
2022/05/22 07:25:46;;;;;;;12.98;6.82;;;;;;;;;;4769714;30;20237;-47
2022/05/22 07:28:26;;;;;;;5.40;3.28;;;;;;;;;;4784843;29;20233;-49
2022/05/22 07:31:15;;;;;;;7.32;3.95;;;;;;;;;;4790295;29;20527;-47
2022/05/22 07:33:42;;;;;;;5.22;2.60;;;;;;;;;;4796308;29;20326;-48
2022/05/22 07:36:45;;;;;;;3.92;1.70;;;;;;;;;;4750427;30;20253;-46
2022/05/22 07:39:30;;;;;;;2.67;1.50;;;;;;;;;;4782834;29;20221;-47
2022/05/22 07:42:08;;;;;;;2.03;1.50;;;;;;;;;;4786111;29;20225;-46
2022/05/22 07:44:54;;;;;;;5.25;1.50;;;;;;;;;;4785784;29;20233;-47
2022/05/22 07:47:44;;;;;;;4.13;1.55;;;;;;;;;;4766596;29;20270;-47
2022/05/22 07:50:34;;;;;;;2.53;1.50;;;;;;;;;;4814133;29;20215;-47
2022/05/22 07:53:25;;;;;;;3.47;0.95;;;;;;;;;;4829282;29;20238;-49
2022/05/22 07:56:04;;;;;;;2.97;1.20;;;;;;;;;;4828939;29;20334;-50
2022/05/22 07:58:51;;;;;;;1.48;1.30;;;;;;;;;;4842475;29;20625;-49
2022/05/22 08:01:37;;;;;;;2.20;1.55;;;;;;;;;;4844277;29;20575;-48
2022/05/22 08:04:20;;;;;;;1.65;1.10;;;;;;;;;;4843948;29;20235;-50
2022/05/22 08:07:11;;;;;;;1.75;1.17;;;;;;;;;;4842310;29;20303;-47
2022/05/22 08:09:58;;;;;;;4.60;1.23;;;;;;;;;;4834905;29;20220;-47
2022/05/22 08:12:27;;;;;;;1.35;1.02;;;;;;;;;;4846323;29;20228;-48
2022/05/22 08:15:09;;;;;;;2.15;1.23;;;;;;;;;;4860280;29;20685;-55
2022/05/22 08:17:36;;;;;;;2.70;1.30;;;;;;;;;;4829743;29;20239;-49
2022/05/22 08:20:15;;;;;;;2.78;1.40;;;;;;;;;;4830312;29;20231;-48
2022/05/22 08:22:57;;;;;;;1.30;1.20;;;;;;;;;;4829986;29;20300;-51
2022/05/22 08:25:45;;;;;;;4.65;1.20;;;;;;;;;;4829498;29;20263;-47
2022/05/22 08:28:13;;;;;;;1.20;1.00;;;;;;;;;;4845490;29;20239;-47
2022/05/22 08:30:41;;;;;;;1.38;0.85;;;;;;;;;;4845750;29;20295;-51
2022/05/22 08:33:08;;;;;;;3.08;1.27;;;;;;;;;;4829972;29;20240;-47
2022/05/22 08:35:38;;;;;;;3.88;1.30;;;;;;;;;;4845759;29;20319;-49
2022/05/22 08:38:07;;;;;;;2.58;1.10;;;;;;;;;;4846082;29;20240;-47
2022/05/22 08:41:02;;;;;;;1.10;0.95;;;;;;;;;;4845410;29;20558;-51
2022/05/22 08:43:36;;;;;;;3.00;1.17;;;;;;;;;;4845760;29;20245;-43
2022/05/22 08:46:28;;;;;;;1.30;0.85;;;;;;;;;;4835022;29;20224;-47
2022/05/22 08:49:06;;;;;;;1.75;1.30;;;;;;;;;;4803333;29;20267;-48
2022/05/22 08:51:50;;;;;;;2.00;1.30;;;;;;;;;;4834594;29;20739;-45
2022/05/22 08:54:28;;;;;;;4.28;1.30;;;;;;;;;;4855708;29;20231;-45
2022/05/22 08:59:47;;;;;;;2.85;1.30;;;;;;;;;;4844173;29;20687;-45
2022/05/22 09:02:35;;;;;;;3.05;1.42;;;;;;;;;;4826055;29;20781;-45
2022/05/22 09:05:13;;;;;;;2.80;1.50;;;;;;;;;;4829673;29;20291;-46
2022/05/22 09:07:47;;;;;;;1.92;1.40;;;;;;;;;;4845294;29;20235;-46
2022/05/22 09:10:21;;;;;;;3.15;1.40;;;;;;;;;;4845827;29;20287;-45
2022/05/22 09:13:04;;;;;;;1.90;1.38;;;;;;;;;;4829301;29;20856;-45
2022/05/22 09:16:06;;;;;;;1.70;1.40;;;;;;;;;;4845008;29;20243;-45
2022/05/22 09:19:02;;;;;;;5.82;1.58;;;;;;;;;;4844864;29;20311;-45
2022/05/22 09:21:32;;;;;;;1.75;1.20;;;;;;;;;;4845127;29;20227;-45
2022/05/22 09:24:02;;;;;;;3.55;2.60;;;;;;;;;;4828949;29;20231;-46
2022/05/22 09:26:35;;;;;;;2.75;1.38;;;;;;;;;;4844878;29;20546;-46
2022/05/22 09:29:39;;;;;;;4.05;1.50;;;;;;;;;;4844902;29;20771;-45
2022/05/22 09:32:27;;;;;;;5.68;1.58;;;;;;;;;;4845420;29;20662;-45
2022/05/22 09:35:18;;;;;;;1.48;1.35;;;;;;;;;;4810889;29;20636;-46
2022/05/22 09:38:06;;;;;;;3.22;1.67;;;;;;;;;;4826521;29;20258;-45
2022/05/22 09:40:50;;;;;;;2.83;1.38;;;;;;;;;;4826884;29;20243;-45
2022/05/22 09:43:35;;;;;;;4.72;1.60;;;;;;;;;;4826831;29;20269;-44
2022/05/22 09:46:39;;;;;;;3.42;1.75;;;;;;;;;;4844359;29;20242;-45
2022/05/22 09:49:37;;;;;;;3.33;1.30;;;;;;;;;;4844342;29;20314;-45
2022/05/22 09:52:16;;;;;;;3.20;1.55;;;;;;;;;;4815142;29;20291;-46
2022/05/22 09:54:58;;;;;;;4.20;1.10;;;;;;;;;;4844645;29;20290;-45
2022/05/22 09:58:02;;;;;;;1.42;1.00;;;;;;;;;;4843999;29;20271;-45
2022/05/22 10:00:35;;;;;;;4.25;1.20;;;;;;;;;;4843785;29;20570;-48
2022/05/22 10:03:09;;;;;;;3.05;1.17;;;;;;;;;;4844505;29;20253;-45
2022/05/22 10:05:57;;;;;;;6.25;1.00;;;;;;;;;;4832208;29;20224;-45
2022/05/22 10:08:48;;;;;;;1.35;1.13;;;;;;;;;;4823449;29;20240;-47
2022/05/22 10:11:33;;;;;;;1.92;1.42;;;;;;;;;;4828428;29;20243;-44
2022/05/22 10:14:10;;;;;;;0.77;0.77;;;;;;;;;;4843561;29;20245;-44
2022/05/22 10:17:22;;;;;;;2.75;1.40;;;;;;;;;;4843704;29;20738;-41
2022/05/22 10:20:09;;;;;;;1.92;1.10;;;;;;;;;;4812006;29;20235;-41
2022/05/22 10:23:14;;;;;;;2.03;1.35;;;;;;;;;;4828142;29;20234;-40
2022/05/22 10:26:03;;;;;;;4.65;1.05;;;;;;;;;;4843931;29;20231;-41
2022/05/22 10:28:33;;;;;;;2.83;1.10;;;;;;;;;;4843903;29;20234;-41
2022/05/22 10:31:12;;;;;;;1.40;1.15;;;;;;;;;;4827931;29;20235;-41
2022/05/22 10:34:05;;;;;;;1.85;1.40;;;;;;;;;;4842931;29;20232;-43
2022/05/22 10:36:41;;;;;;;2.30;1.23;;;;;;;;;;4842476;29;20679;-42
2022/05/22 10:39:10;;;;;;;5.57;1.25;;;;;;;;;;4828160;29;20302;-41
2022/05/22 10:44:53;;;;;;;2.55;1.25;;;;;;;;;;4802129;29;20211;-42
2022/05/22 10:47:29;;;;;;;4.55;1.40;;;;;;;;;;4828638;29;20574;-42
2022/05/22 10:49:58;;;;;;;2.35;1.23;;;;;;;;;;4844329;29;20278;-40
2022/05/22 10:52:31;;;;;;;3.05;1.25;;;;;;;;;;4844328;29;20207;-41
2022/05/22 10:55:01;;;;;;;6.45;1.42;;;;;;;;;;4844471;29;20690;-40
2022/05/22 10:57:30;;;;;;;3.22;1.15;;;;;;;;;;4844419;29;20566;-41
2022/05/22 11:00:13;;;;;;;4.30;1.73;;;;;;;;;;4828871;29;20264;-42
2022/05/22 11:02:40;;;;;;;2.42;1.50;;;;;;;;;;4844150;29;20218;-41
2022/05/22 11:05:28;;;;;;;3.35;1.42;;;;;;;;;;4844283;29;20212;-40
2022/05/22 11:07:57;;;;;;;2.00;1.38;;;;;;;;;;4844667;29;20199;-42
2022/05/22 11:10:33;;;;;;;2.78;1.40;;;;;;;;;;4828523;29;20207;-43
2022/05/22 11:13:07;;;;;;;2.25;1.50;;;;;;;;;;4843964;29;20219;-41
2022/05/22 11:15:42;;;;;;;2.33;1.40;;;;;;;;;;4844150;29;20204;-42
2022/05/22 11:18:25;;;;;;;2.50;1.60;;;;;;;;;;4844599;29;20230;-41
2022/05/22 11:21:17;;;;;;;3.35;1.48;;;;;;;;;;4843855;29;20196;-42
2022/05/22 11:24:10;;;;;;;2.42;1.40;;;;;;;;;;4843257;29;20203;-43
2022/05/22 11:26:55;;;;;;;2.58;1.35;;;;;;;;;;4843849;29;20219;-41
2022/05/22 11:29:46;;;;;;;2.33;1.63;;;;;;;;;;4843815;29;20219;-43
2022/05/22 11:32:22;;;;;;;4.10;1.50;;;;;;;;;;4843579;29;20355;-43
2022/05/22 11:35:02;;;;;;;2.22;1.30;;;;;;;;;;4843291;29;20207;-42
2022/05/22 11:37:43;;;;;;;2.38;1.33;;;;;;;;;;4844321;29;20227;-43
2022/05/22 11:40:37;;;;;;;2.05;1.50;;;;;;;;;;4827825;29;20602;-42
2022/05/22 11:43:32;;;;;;;3.90;1.45;;;;;;;;;;4843952;29;20299;-42
2022/05/22 11:46:29;;;;;;;3.28;1.40;;;;;;;;;;4844157;29;20295;-41
2022/05/22 11:48:56;;;;;;;3.13;1.50;;;;;;;;;;4823287;29;20209;-41
2022/05/22 11:51:26;;;;;;;2.38;1.83;;;;;;;;;;4843934;29;20219;-43
2022/05/22 11:54:34;;;;;;;5.28;1.85;;;;;;;;;;4843547;29;20540;-42
2022/05/22 11:57:17;;;;;;;2.22;1.67;;;;;;;;;;4769679;30;20643;-39
2022/05/22 12:00:03;;;;;;;2.63;1.85;;;;;;;;;;4769868;30;20210;-40
2022/05/22 12:02:49;;;;;;;4.85;1.92;;;;;;;;;;4783602;30;20218;-41
2022/05/22 12:05:44;;;;;;;2.40;1.70;;;;;;;;;;4755172;30;20198;-38
2022/05/22 12:08:22;;;;;;;4.53;1.73;;;;;;;;;;4770188;30;20210;-42
2022/05/22 12:11:02;;;;;;;4.65;1.70;;;;;;;;;;4769659;30;20715;-41
2022/05/22 12:13:39;;;;;;;5.00;1.77;;;;;;;;;;4755230;30;20248;-42
2022/05/22 12:16:09;;;;;;;3.55;1.65;;;;;;;;;;4783128;30;20256;-41
2022/05/22 12:18:54;;;;;;;4.97;1.70;;;;;;;;;;4769509;30;20202;-41
2022/05/22 12:21:41;;;;;;;4.20;1.52;;;;;;;;;;4762734;30;20544;-41
2022/05/22 12:24:17;;;;;;;4.55;1.55;;;;;;;;;;4755139;30;20218;-41
2022/05/22 12:26:44;;;;;;;3.50;1.70;;;;;;;;;;4769627;30;20528;-41
2022/05/22 12:29:14;;;;;;;5.95;1.75;;;;;;;;;;4769825;30;20211;-41
2022/05/22 12:31:49;;;;;;;3.90;1.70;;;;;;;;;;4775351;29;20626;-43
2022/05/22 12:34:19;;;;;;;5.45;1.67;;;;;;;;;;4821195;29;20295;-44
2022/05/22 12:36:48;;;;;;;3.38;1.80;;;;;;;;;;4827068;29;20243;-43
2022/05/22 12:39:17;;;;;;;3.47;1.80;;;;;;;;;;4826652;29;20231;-42
2022/05/22 12:41:55;;;;;;;4.38;2.00;;;;;;;;;;4842570;29;20227;-43
2022/05/22 12:44:24;;;;;;;5.47;2.28;;;;;;;;;;4826498;29;20242;-44
2022/05/22 12:46:52;;;;;;;4.80;2.00;;;;;;;;;;4843979;29;20250;-44
2022/05/22 12:49:26;;;;;;;3.53;2.20;;;;;;;;;;4843038;29;20242;-44
2022/05/22 12:51:56;;;;;;;3.97;1.83;;;;;;;;;;4842475;29;20227;-43
2022/05/22 12:54:26;;;;;;;4.32;2.17;;;;;;;;;;4840878;29;20231;-44
2022/05/22 12:56:53;;;;;;;2.45;1.90;;;;;;;;;;4842896;29;20558;-44
2022/05/22 12:59:27;;;;;;;2.88;2.00;;;;;;;;;;4844798;29;20231;-43
2022/05/22 13:01:57;;;;;;;4.28;1.90;;;;;;;;;;4842311;29;20541;-45
2022/05/22 13:04:34;;;;;;;4.65;1.73;;;;;;;;;;4844922;29;20228;-43
2022/05/22 13:07:06;;;;;;;2.83;1.40;;;;;;;;;;4844038;29;20254;-44
2022/05/22 13:09:36;;;;;;;3.13;1.42;;;;;;;;;;4843085;29;20223;-43
2022/05/22 13:12:12;;;;;;;4.00;1.42;;;;;;;;;;4845065;29;20226;-44
2022/05/22 13:14:50;;;;;;;5.10;1.77;;;;;;;;;;4845004;29;20234;-43
2022/05/22 13:17:30;;;;;;;3.22;1.52;;;;;;;;;;4842718;29;20227;-44
2022/05/22 13:20:06;;;;;;;3.22;1.40;;;;;;;;;;4843039;29;20239;-44
2022/05/22 13:22:36;;;;;;;2.10;1.15;;;;;;;;;;4844321;29;20287;-44
2022/05/22 13:25:07;;;;;;;2.88;1.70;;;;;;;;;;4844750;29;20650;-44
2022/05/22 13:27:40;;;;;;;1.33;1.15;;;;;;;;;;4827078;29;20251;-44
2022/05/22 13:30:18;;;;;;;2.22;1.30;;;;;;;;;;4844799;29;20227;-45
2022/05/22 13:32:52;;;;;;;3.20;1.80;;;;;;;;;;4828475;29;20238;-46
2022/05/22 13:35:23;;;;;;;4.18;1.25;;;;;;;;;;4828463;29;20539;-44
2022/05/22 13:37:53;;;;;;;3.70;1.30;;;;;;;;;;4844789;29;20614;-44
2022/05/22 13:40:35;;;;;;;2.38;1.40;;;;;;;;;;4844435;29;20244;-45
2022/05/22 13:43:24;;;;;;;4.70;1.60;;;;;;;;;;4826314;29;20727;-45
2022/05/22 13:46:13;;;;;;;2.78;1.80;;;;;;;;;;4825915;29;20532;-43
2022/05/22 13:48:59;;;;;;;3.10;1.52;;;;;;;;;;4834879;29;20670;-43
2022/05/22 13:54:54;;;;;;;3.00;1.90;;;;;;;;;;4826497;29;20231;-45
2022/05/22 13:57:29;;;;;;;2.35;1.65;;;;;;;;;;4810143;29;20686;-44
2022/05/22 14:00:05;;;;;;;2.25;1.13;;;;;;;;;;4832791;29;20234;-43
2022/05/22 14:02:45;;;;;;;3.90;1.50;;;;;;;;;;4827856;29;20310;-44
2022/05/22 14:05:13;;;;;;;4.22;1.52;;;;;;;;;;4825722;29;20288;-44
2022/05/22 14:07:42;;;;;;;7.60;1.67;;;;;;;;;;4844063;29;20223;-43
2022/05/22 14:10:10;;;;;;;2.63;1.50;;;;;;;;;;4843610;29;20227;-47
2022/05/22 14:12:40;;;;;;;6.30;1.63;;;;;;;;;;4843898;29;20401;-43
2022/05/22 14:15:24;;;;;;;3.63;1.83;;;;;;;;;;4843381;29;20602;-46
2022/05/22 14:17:51;;;;;;;5.55;1.30;;;;;;;;;;4843839;29;20291;-44
2022/05/22 14:20:31;;;;;;;3.63;1.80;;;;;;;;;;4827638;29;20652;-44
2022/05/22 14:23:11;;;;;;;1.98;1.10;;;;;;;;;;4836029;29;20299;-44
2022/05/22 14:25:40;;;;;;;2.75;1.70;;;;;;;;;;4844296;29;20569;-44
2022/05/22 14:28:07;;;;;;;1.85;1.35;;;;;;;;;;4843545;29;20267;-46
2022/05/22 14:30:39;;;;;;;2.42;1.35;;;;;;;;;;4843257;29;20240;-43
2022/05/22 14:33:08;;;;;;;5.70;1.60;;;;;;;;;;4843753;29;20242;-44
2022/05/22 14:35:39;;;;;;;4.40;1.60;;;;;;;;;;4843780;29;20232;-46
2022/05/22 14:38:20;;;;;;;5.07;2.05;;;;;;;;;;4843621;29;20239;-44
2022/05/22 14:40:57;;;;;;;3.30;2.00;;;;;;;;;;4843710;29;20243;-44
2022/05/22 14:43:48;;;;;;;2.97;1.52;;;;;;;;;;4843643;29;20238;-44
2022/05/22 14:46:23;;;;;;;1.80;1.30;;;;;;;;;;4842278;29;20224;-43
2022/05/22 14:48:51;;;;;;;2.40;1.40;;;;;;;;;;4843504;29;20234;-43
2022/05/22 14:51:30;;;;;;;3.10;0.90;;;;;;;;;;4843397;29;20258;-43
2022/05/22 14:54:27;;;;;;;2.17;1.30;;;;;;;;;;4843316;29;20231;-43
2022/05/22 14:57:17;;;;;;;3.00;1.30;;;;;;;;;;4843474;29;20231;-44
2022/05/22 15:00:05;;;;;;;2.65;1.48;;;;;;;;;;4842533;29;20280;-43
2022/05/22 15:02:41;;;;;;;1.27;1.10;;;;;;;;;;4838894;29;20250;-44
2022/05/22 15:05:14;;;;;;;4.30;1.17;;;;;;;;;;4834759;29;20223;-43
2022/05/22 15:07:55;;;;;;;1.60;1.33;;;;;;;;;;4835012;29;20235;-43
2022/05/22 15:10:42;;;;;;;3.03;1.40;;;;;;;;;;4815351;29;20300;-43
2022/05/22 15:13:33;;;;;;;2.30;1.50;;;;;;;;;;4842772;29;20727;-41
2022/05/22 15:16:09;;;;;;;3.88;1.30;;;;;;;;;;4843009;29;20223;-40
2022/05/22 15:21:25;;;;;;;4.28;1.52;;;;;;;;;;4840667;29;20215;-40
2022/05/22 15:26:50;;;;;;;2.10;1.45;;;;;;;;;;4837052;29;20227;-42
2022/05/22 15:29:28;;;;;;;2.50;1.80;;;;;;;;;;4834656;29;20227;-42
2022/05/22 15:32:07;;;;;;;2.40;1.42;;;;;;;;;;4834515;29;20266;-41
2022/05/22 15:34:34;;;;;;;1.83;1.15;;;;;;;;;;4839277;29;20219;-43
2022/05/22 15:37:18;;;;;;;1.30;1.00;;;;;;;;;;4824854;29;20266;-48
2022/05/22 15:39:46;;;;;;;5.05;1.27;;;;;;;;;;4821484;29;20312;-43
2022/05/22 15:42:16;;;;;;;1.67;1.10;;;;;;;;;;4822465;29;20224;-43
2022/05/22 15:45:03;;;;;;;1.45;1.20;;;;;;;;;;4822635;29;20559;-43
2022/05/22 15:47:33;;;;;;;2.08;1.00;;;;;;;;;;4825817;29;20552;-44
2022/05/22 15:52:56;;;;;;;3.22;1.35;;;;;;;;;;4823425;29;20269;-42
2022/05/22 15:55:25;;;;;;;2.90;1.15;;;;;;;;;;4823214;29;20261;-43
2022/05/22 15:57:52;;;;;;;2.95;0.98;;;;;;;;;;4825381;29;20244;-43
2022/05/22 16:00:21;;;;;;;1.65;1.20;;;;;;;;;;4824131;29;20288;-41
2022/05/22 16:02:52;;;;;;;2.20;1.08;;;;;;;;;;4835557;29;20223;-43